sensor_id;sensor_type;location;lat;lon;timestamp;temperature;humidity
32502;DHT22;18952;52.516;13.460;2022-07-17T00:02:27;13.80;99.90
32502;DHT22;18952;52.516;13.460;2022-07-17T00:05:04;13.80;99.90
32502;DHT22;18952;52.516;13.460;2022-07-17T00:08:00;13.80;99.90
32502;DHT22;18952;52.516;13.460;2022-07-17T00:10:32;13.80;99.90
32502;DHT22;18952;52.516;13.460;2022-07-17T00:13:06;13.70;99.90
32502;DHT22;18952;52.516;13.460;2022-07-17T00:15:38;13.70;99.90
32502;DHT22;18952;52.516;13.460;2022-07-17T00:18:15;13.80;99.90
32502;DHT22;18952;52.516;13.460;2022-07-17T00:20:43;13.70;99.90
32502;DHT22;18952;52.516;13.460;2022-07-17T00:23:24;13.60;99.90
32502;DHT22;18952;52.516;13.460;2022-07-17T00:25:55;13.60;99.90
32502;DHT22;18952;52.516;13.460;2022-07-17T00:28:26;13.60;99.90
32502;DHT22;18952;52.516;13.460;2022-07-17T00:30:57;13.60;99.90
32502;DHT22;18952;52.516;13.460;2022-07-17T00:33:30;13.50;99.90
32502;DHT22;18952;52.516;13.460;2022-07-17T00:35:56;13.50;99.90
32502;DHT22;18952;52.516;13.460;2022-07-17T00:38:27;13.50;99.90
32502;DHT22;18952;52.516;13.460;2022-07-17T00:40:57;13.50;99.90
32502;DHT22;18952;52.516;13.460;2022-07-17T00:43:35;13.50;99.90
32502;DHT22;18952;52.516;13.460;2022-07-17T00:46:05;13.40;99.90
32502;DHT22;18952;52.516;13.460;2022-07-17T00:48:49;13.40;99.90
32502;DHT22;18952;52.516;13.460;2022-07-17T00:51:25;13.40;99.90
32502;DHT22;18952;52.516;13.460;2022-07-17T00:54:03;13.40;99.90
32502;DHT22;18952;52.516;13.460;2022-07-17T00:56:37;13.40;99.90
32502;DHT22;18952;52.516;13.460;2022-07-17T00:59:07;13.30;99.90
32502;DHT22;18952;52.516;13.460;2022-07-17T01:01:54;13.30;99.90
32502;DHT22;18952;52.516;13.460;2022-07-17T01:04:29;13.30;99.90
32502;DHT22;18952;52.516;13.460;2022-07-17T01:07:04;13.20;99.90
32502;DHT22;18952;52.516;13.460;2022-07-17T01:09:41;13.20;99.90
32502;DHT22;18952;52.516;13.460;2022-07-17T01:12:18;13.20;99.90
32502;DHT22;18952;52.516;13.460;2022-07-17T01:14:51;13.10;99.90
32502;DHT22;18952;52.516;13.460;2022-07-17T01:17:29;13.10;99.90
32502;DHT22;18952;52.516;13.460;2022-07-17T01:20:11;13.10;99.90
32502;DHT22;18952;52.516;13.460;2022-07-17T01:22:53;13.10;99.90
32502;DHT22;18952;52.516;13.460;2022-07-17T01:25:22;13.00;99.90
32502;DHT22;18952;52.516;13.460;2022-07-17T01:27:50;13.10;99.90
32502;DHT22;18952;52.516;13.460;2022-07-17T01:30:19;13.10;99.90
32502;DHT22;18952;52.516;13.460;2022-07-17T01:32:51;13.00;99.90
32502;DHT22;18952;52.516;13.460;2022-07-17T01:35:22;12.90;99.90
32502;DHT22;18952;52.516;13.460;2022-07-17T01:38:10;12.90;99.90
32502;DHT22;18952;52.516;13.460;2022-07-17T01:40:44;12.80;99.90
32502;DHT22;18952;52.516;13.460;2022-07-17T01:43:17;12.90;99.90
32502;DHT22;18952;52.516;13.460;2022-07-17T01:45:45;12.80;99.90
32502;DHT22;18952;52.516;13.460;2022-07-17T01:48:24;12.80;99.90
32502;DHT22;18952;52.516;13.460;2022-07-17T01:50:55;12.80;99.90
32502;DHT22;18952;52.516;13.460;2022-07-17T01:53:30;12.70;99.90
32502;DHT22;18952;52.516;13.460;2022-07-17T01:56:02;12.70;99.90
32502;DHT22;18952;52.516;13.460;2022-07-17T01:58:34;12.70;99.90
32502;DHT22;18952;52.516;13.460;2022-07-17T02:01:04;12.60;99.90
32502;DHT22;18952;52.516;13.460;2022-07-17T02:03:45;12.60;99.90
32502;DHT22;18952;52.516;13.460;2022-07-17T02:06:17;12.50;99.90
32502;DHT22;18952;52.516;13.460;2022-07-17T02:08:46;12.50;99.90
32502;DHT22;18952;52.516;13.460;2022-07-17T02:11:24;12.50;99.90
32502;DHT22;18952;52.516;13.460;2022-07-17T02:13:52;12.50;99.90
32502;DHT22;18952;52.516;13.460;2022-07-17T02:16:21;12.50;99.90
32502;DHT22;18952;52.516;13.460;2022-07-17T02:18:52;12.50;99.90
32502;DHT22;18952;52.516;13.460;2022-07-17T02:21:22;12.40;99.90
32502;DHT22;18952;52.516;13.460;2022-07-17T02:23:51;12.40;99.90
32502;DHT22;18952;52.516;13.460;2022-07-17T02:26:19;12.50;99.90
32502;DHT22;18952;52.516;13.460;2022-07-17T02:28:48;12.40;99.90
32502;DHT22;18952;52.516;13.460;2022-07-17T02:31:20;12.30;99.90
32502;DHT22;18952;52.516;13.460;2022-07-17T02:33:51;12.30;99.90
32502;DHT22;18952;52.516;13.460;2022-07-17T02:36:19;12.30;99.90
32502;DHT22;18952;52.516;13.460;2022-07-17T02:38:47;12.30;99.90
32502;DHT22;18952;52.516;13.460;2022-07-17T02:41:23;12.30;99.90
32502;DHT22;18952;52.516;13.460;2022-07-17T02:43:52;12.20;99.90
32502;DHT22;18952;52.516;13.460;2022-07-17T02:46:28;12.20;99.90
32502;DHT22;18952;52.516;13.460;2022-07-17T02:48:56;12.20;99.90
32502;DHT22;18952;52.516;13.460;2022-07-17T02:51:25;12.20;99.90
32502;DHT22;18952;52.516;13.460;2022-07-17T02:53:57;12.10;99.90
32502;DHT22;18952;52.516;13.460;2022-07-17T02:56:26;12.10;99.90
32502;DHT22;18952;52.516;13.460;2022-07-17T02:58:54;12.10;99.90
32502;DHT22;18952;52.516;13.460;2022-07-17T03:01:22;12.10;99.90
32502;DHT22;18952;52.516;13.460;2022-07-17T03:03:53;12.10;99.90
32502;DHT22;18952;52.516;13.460;2022-07-17T03:06:24;12.10;99.90
32502;DHT22;18952;52.516;13.460;2022-07-17T03:08:55;12.10;99.90
32502;DHT22;18952;52.516;13.460;2022-07-17T03:11:23;12.10;99.90
32502;DHT22;18952;52.516;13.460;2022-07-17T03:13:51;12.10;99.90
32502;DHT22;18952;52.516;13.460;2022-07-17T03:16:21;12.10;99.90
32502;DHT22;18952;52.516;13.460;2022-07-17T03:18:52;12.10;99.90
32502;DHT22;18952;52.516;13.460;2022-07-17T03:21:24;12.00;99.90
32502;DHT22;18952;52.516;13.460;2022-07-17T03:23:52;12.10;99.90
32502;DHT22;18952;52.516;13.460;2022-07-17T03:26:21;12.10;99.90
32502;DHT22;18952;52.516;13.460;2022-07-17T03:28:51;12.10;99.90
32502;DHT22;18952;52.516;13.460;2022-07-17T03:31:18;12.00;99.90
32502;DHT22;18952;52.516;13.460;2022-07-17T03:33:47;12.00;99.90
32502;DHT22;18952;52.516;13.460;2022-07-17T03:36:17;12.00;99.90
32502;DHT22;18952;52.516;13.460;2022-07-17T03:38:53;12.00;99.90
32502;DHT22;18952;52.516;13.460;2022-07-17T03:41:22;12.00;99.90
32502;DHT22;18952;52.516;13.460;2022-07-17T03:43:52;12.00;99.90
32502;DHT22;18952;52.516;13.460;2022-07-17T03:46:20;12.00;99.90
32502;DHT22;18952;52.516;13.460;2022-07-17T03:48:58;11.90;99.90
32502;DHT22;18952;52.516;13.460;2022-07-17T03:51:35;11.90;99.90
32502;DHT22;18952;52.516;13.460;2022-07-17T03:54:04;11.90;99.90
32502;DHT22;18952;52.516;13.460;2022-07-17T03:56:34;11.90;99.90
32502;DHT22;18952;52.516;13.460;2022-07-17T03:59:02;12.00;99.90
32502;DHT22;18952;52.516;13.460;2022-07-17T04:01:32;11.90;99.90
32502;DHT22;18952;52.516;13.460;2022-07-17T04:04:10;12.00;99.90
32502;DHT22;18952;52.516;13.460;2022-07-17T04:06:37;12.00;99.90
32502;DHT22;18952;52.516;13.460;2022-07-17T04:09:08;12.00;99.90
32502;DHT22;18952;52.516;13.460;2022-07-17T04:11:36;11.90;99.90
32502;DHT22;18952;52.516;13.460;2022-07-17T04:14:04;12.00;99.90
32502;DHT22;18952;52.516;13.460;2022-07-17T04:16:37;12.00;99.90
32502;DHT22;18952;52.516;13.460;2022-07-17T04:19:08;11.90;99.90
32502;DHT22;18952;52.516;13.460;2022-07-17T04:21:41;11.90;99.90
32502;DHT22;18952;52.516;13.460;2022-07-17T04:24:19;12.00;99.90
32502;DHT22;18952;52.516;13.460;2022-07-17T04:26:48;11.90;99.90
32502;DHT22;18952;52.516;13.460;2022-07-17T04:29:18;11.90;99.90
32502;DHT22;18952;52.516;13.460;2022-07-17T04:31:48;12.00;99.90
32502;DHT22;18952;52.516;13.460;2022-07-17T04:34:16;12.00;99.90
32502;DHT22;18952;52.516;13.460;2022-07-17T04:36:53;12.00;99.90
32502;DHT22;18952;52.516;13.460;2022-07-17T04:39:21;12.00;99.90
32502;DHT22;18952;52.516;13.460;2022-07-17T04:41:52;12.10;99.90
32502;DHT22;18952;52.516;13.460;2022-07-17T04:44:24;12.10;99.90
32502;DHT22;18952;52.516;13.460;2022-07-17T04:46:55;12.10;99.90
32502;DHT22;18952;52.516;13.460;2022-07-17T04:49:29;12.20;99.90
32502;DHT22;18952;52.516;13.460;2022-07-17T04:52:03;12.20;99.90
32502;DHT22;18952;52.516;13.460;2022-07-17T04:54:32;12.20;99.90
32502;DHT22;18952;52.516;13.460;2022-07-17T04:57:02;12.20;99.90
32502;DHT22;18952;52.516;13.460;2022-07-17T04:59:34;12.30;99.90
32502;DHT22;18952;52.516;13.460;2022-07-17T05:02:03;12.30;99.90
32502;DHT22;18952;52.516;13.460;2022-07-17T05:04:31;12.30;99.90
32502;DHT22;18952;52.516;13.460;2022-07-17T05:07:01;12.40;99.90
32502;DHT22;18952;52.516;13.460;2022-07-17T05:09:30;12.30;99.90
32502;DHT22;18952;52.516;13.460;2022-07-17T05:11:58;12.30;99.90
32502;DHT22;18952;52.516;13.460;2022-07-17T05:14:26;12.40;99.90
32502;DHT22;18952;52.516;13.460;2022-07-17T05:16:56;12.50;99.90
32502;DHT22;18952;52.516;13.460;2022-07-17T05:19:29;12.50;99.90
32502;DHT22;18952;52.516;13.460;2022-07-17T05:21:58;12.50;99.90
32502;DHT22;18952;52.516;13.460;2022-07-17T05:24:33;12.50;99.90
32502;DHT22;18952;52.516;13.460;2022-07-17T05:27:00;12.50;99.90
32502;DHT22;18952;52.516;13.460;2022-07-17T05:29:28;12.50;99.90
32502;DHT22;18952;52.516;13.460;2022-07-17T05:31:57;12.60;99.90
32502;DHT22;18952;52.516;13.460;2022-07-17T05:34:32;12.60;99.90
32502;DHT22;18952;52.516;13.460;2022-07-17T05:37:00;12.70;99.90
32502;DHT22;18952;52.516;13.460;2022-07-17T05:39:30;12.80;99.90
32502;DHT22;18952;52.516;13.460;2022-07-17T05:41:59;12.80;99.90
32502;DHT22;18952;52.516;13.460;2022-07-17T05:44:25;12.80;99.90
32502;DHT22;18952;52.516;13.460;2022-07-17T05:46:54;12.90;99.90
32502;DHT22;18952;52.516;13.460;2022-07-17T05:49:26;13.00;99.90
32502;DHT22;18952;52.516;13.460;2022-07-17T05:51:54;13.00;99.90
32502;DHT22;18952;52.516;13.460;2022-07-17T05:54:22;13.00;99.90
32502;DHT22;18952;52.516;13.460;2022-07-17T05:56:50;13.00;99.90
32502;DHT22;18952;52.516;13.460;2022-07-17T05:59:25;13.20;99.90
32502;DHT22;18952;52.516;13.460;2022-07-17T06:01:53;13.30;99.90
32502;DHT22;18952;52.516;13.460;2022-07-17T06:04:22;13.30;99.90
32502;DHT22;18952;52.516;13.460;2022-07-17T06:06:52;13.40;99.90
32502;DHT22;18952;52.516;13.460;2022-07-17T06:09:26;13.50;99.90
32502;DHT22;18952;52.516;13.460;2022-07-17T06:11:53;13.50;99.90
32502;DHT22;18952;52.516;13.460;2022-07-17T06:14:25;13.50;99.90
32502;DHT22;18952;52.516;13.460;2022-07-17T06:16:54;13.50;99.90
32502;DHT22;18952;52.516;13.460;2022-07-17T06:19:23;13.50;99.90
32502;DHT22;18952;52.516;13.460;2022-07-17T06:21:51;13.50;99.90
32502;DHT22;18952;52.516;13.460;2022-07-17T06:24:32;13.50;99.90
32502;DHT22;18952;52.516;13.460;2022-07-17T06:27:01;13.60;99.90
32502;DHT22;18952;52.516;13.460;2022-07-17T06:29:29;13.70;99.90
32502;DHT22;18952;52.516;13.460;2022-07-17T06:31:57;13.70;99.90
32502;DHT22;18952;52.516;13.460;2022-07-17T06:34:27;13.80;99.90
32502;DHT22;18952;52.516;13.460;2022-07-17T06:36:57;13.80;99.90
32502;DHT22;18952;52.516;13.460;2022-07-17T06:39:25;14.00;99.90
32502;DHT22;18952;52.516;13.460;2022-07-17T06:41:55;14.10;99.90
32502;DHT22;18952;52.516;13.460;2022-07-17T06:44:23;14.20;99.90
32502;DHT22;18952;52.516;13.460;2022-07-17T06:46:53;14.30;99.90
32502;DHT22;18952;52.516;13.460;2022-07-17T06:49:25;14.30;99.90
32502;DHT22;18952;52.516;13.460;2022-07-17T06:52:05;14.50;99.90
32502;DHT22;18952;52.516;13.460;2022-07-17T06:54:34;14.60;99.90
32502;DHT22;18952;52.516;13.460;2022-07-17T06:57:02;14.70;99.90
32502;DHT22;18952;52.516;13.460;2022-07-17T06:59:34;14.60;99.90
32502;DHT22;18952;52.516;13.460;2022-07-17T07:02:05;14.70;99.90
32502;DHT22;18952;52.516;13.460;2022-07-17T07:04:37;14.70;99.90
32502;DHT22;18952;52.516;13.460;2022-07-17T07:07:30;14.80;99.90
32502;DHT22;18952;52.516;13.460;2022-07-17T07:10:00;14.90;99.90
32502;DHT22;18952;52.516;13.460;2022-07-17T07:12:28;14.80;99.90
32502;DHT22;18952;52.516;13.460;2022-07-17T07:15:08;14.70;99.90
32502;DHT22;18952;52.516;13.460;2022-07-17T07:17:42;14.60;99.90
32502;DHT22;18952;52.516;13.460;2022-07-17T07:20:19;14.60;99.90
32502;DHT22;18952;52.516;13.460;2022-07-17T07:22:48;14.60;99.90
32502;DHT22;18952;52.516;13.460;2022-07-17T07:25:16;14.60;99.90
32502;DHT22;18952;52.516;13.460;2022-07-17T07:27:48;14.70;99.90
32502;DHT22;18952;52.516;13.460;2022-07-17T07:30:27;14.80;99.90
32502;DHT22;18952;52.516;13.460;2022-07-17T07:32:57;14.80;99.90
32502;DHT22;18952;52.516;13.460;2022-07-17T07:35:26;15.00;99.90
32502;DHT22;18952;52.516;13.460;2022-07-17T07:37:58;15.00;99.90
32502;DHT22;18952;52.516;13.460;2022-07-17T07:40:26;14.90;99.90
32502;DHT22;18952;52.516;13.460;2022-07-17T07:42:57;15.00;99.90
32502;DHT22;18952;52.516;13.460;2022-07-17T07:45:39;15.10;99.90
32502;DHT22;18952;52.516;13.460;2022-07-17T07:48:08;15.30;99.90
32502;DHT22;18952;52.516;13.460;2022-07-17T07:50:36;15.20;99.90
32502;DHT22;18952;52.516;13.460;2022-07-17T07:53:07;15.10;99.90
32502;DHT22;18952;52.516;13.460;2022-07-17T07:55:37;15.20;99.90
32502;DHT22;18952;52.516;13.460;2022-07-17T07:58:08;15.10;99.90
32502;DHT22;18952;52.516;13.460;2022-07-17T08:00:44;15.10;99.90
32502;DHT22;18952;52.516;13.460;2022-07-17T08:03:12;15.10;99.90
32502;DHT22;18952;52.516;13.460;2022-07-17T08:05:40;15.10;99.90
32502;DHT22;18952;52.516;13.460;2022-07-17T08:08:10;15.20;99.90
32502;DHT22;18952;52.516;13.460;2022-07-17T08:10:50;15.30;99.90
32502;DHT22;18952;52.516;13.460;2022-07-17T08:13:25;15.30;99.90
32502;DHT22;18952;52.516;13.460;2022-07-17T08:15:54;15.20;99.90
32502;DHT22;18952;52.516;13.460;2022-07-17T08:18:23;15.10;99.90
32502;DHT22;18952;52.516;13.460;2022-07-17T08:20:57;15.10;99.90
32502;DHT22;18952;52.516;13.460;2022-07-17T08:23:26;15.10;99.90
32502;DHT22;18952;52.516;13.460;2022-07-17T08:25:56;15.20;99.90
32502;DHT22;18952;52.516;13.460;2022-07-17T08:28:24;15.30;99.90
32502;DHT22;18952;52.516;13.460;2022-07-17T08:30:52;15.30;99.90
32502;DHT22;18952;52.516;13.460;2022-07-17T08:33:22;15.30;99.90
32502;DHT22;18952;52.516;13.460;2022-07-17T08:35:51;15.30;99.90
32502;DHT22;18952;52.516;13.460;2022-07-17T08:38:20;15.30;99.90
32502;DHT22;18952;52.516;13.460;2022-07-17T08:40:50;15.40;99.90
32502;DHT22;18952;52.516;13.460;2022-07-17T08:43:18;15.30;99.90
32502;DHT22;18952;52.516;13.460;2022-07-17T08:45:48;15.40;99.90
32502;DHT22;18952;52.516;13.460;2022-07-17T08:48:24;15.70;99.90
32502;DHT22;18952;52.516;13.460;2022-07-17T08:50:58;15.80;99.90
32502;DHT22;18952;52.516;13.460;2022-07-17T08:53:30;15.80;99.90
32502;DHT22;18952;52.516;13.460;2022-07-17T08:56:00;16.00;99.90
32502;DHT22;18952;52.516;13.460;2022-07-17T08:58:28;16.00;99.90
32502;DHT22;18952;52.516;13.460;2022-07-17T09:00:58;16.00;99.90
32502;DHT22;18952;52.516;13.460;2022-07-17T09:03:27;16.00;99.90
32502;DHT22;18952;52.516;13.460;2022-07-17T09:05:55;16.00;99.90
32502;DHT22;18952;52.516;13.460;2022-07-17T09:08:24;16.00;99.90
32502;DHT22;18952;52.516;13.460;2022-07-17T09:10:54;15.90;99.90
32502;DHT22;18952;52.516;13.460;2022-07-17T09:13:29;16.00;99.90
32502;DHT22;18952;52.516;13.460;2022-07-17T09:16:08;16.10;99.90
32502;DHT22;18952;52.516;13.460;2022-07-17T09:18:51;16.10;99.90
32502;DHT22;18952;52.516;13.460;2022-07-17T09:21:23;16.10;99.90
32502;DHT22;18952;52.516;13.460;2022-07-17T09:24:07;16.20;99.90
32502;DHT22;18952;52.516;13.460;2022-07-17T09:26:44;16.30;99.90
32502;DHT22;18952;52.516;13.460;2022-07-17T09:29:11;16.30;99.90
32502;DHT22;18952;52.516;13.460;2022-07-17T09:31:40;16.30;99.90
32502;DHT22;18952;52.516;13.460;2022-07-17T09:34:17;16.50;99.90
32502;DHT22;18952;52.516;13.460;2022-07-17T09:37:00;16.40;99.90
32502;DHT22;18952;52.516;13.460;2022-07-17T09:39:39;16.60;99.90
32502;DHT22;18952;52.516;13.460;2022-07-17T09:42:21;16.70;99.90
32502;DHT22;18952;52.516;13.460;2022-07-17T09:45:01;16.70;99.90
32502;DHT22;18952;52.516;13.460;2022-07-17T09:47:41;16.90;99.90
32502;DHT22;18952;52.516;13.460;2022-07-17T09:50:09;16.90;99.90
32502;DHT22;18952;52.516;13.460;2022-07-17T09:52:39;16.70;99.90
32502;DHT22;18952;52.516;13.460;2022-07-17T09:55:13;16.70;99.90
32502;DHT22;18952;52.516;13.460;2022-07-17T09:58:03;16.90;99.90
32502;DHT22;18952;52.516;13.460;2022-07-17T10:00:35;16.80;99.90
32502;DHT22;18952;52.516;13.460;2022-07-17T10:03:02;16.80;99.90
32502;DHT22;18952;52.516;13.460;2022-07-17T10:05:33;16.70;99.90
32502;DHT22;18952;52.516;13.460;2022-07-17T10:08:04;16.90;99.90
32502;DHT22;18952;52.516;13.460;2022-07-17T10:10:34;16.80;99.90
32502;DHT22;18952;52.516;13.460;2022-07-17T10:13:04;16.90;99.90
32502;DHT22;18952;52.516;13.460;2022-07-17T10:15:33;16.90;99.90
32502;DHT22;18952;52.516;13.460;2022-07-17T10:18:07;16.80;99.90
32502;DHT22;18952;52.516;13.460;2022-07-17T10:20:42;16.80;99.90
32502;DHT22;18952;52.516;13.460;2022-07-17T10:23:15;16.90;99.90
32502;DHT22;18952;52.516;13.460;2022-07-17T10:26:01;16.90;99.90
32502;DHT22;18952;52.516;13.460;2022-07-17T10:28:47;16.90;99.90
32502;DHT22;18952;52.516;13.460;2022-07-17T10:31:27;17.00;99.90
32502;DHT22;18952;52.516;13.460;2022-07-17T10:34:02;17.00;99.90
32502;DHT22;18952;52.516;13.460;2022-07-17T10:36:42;17.10;99.90
32502;DHT22;18952;52.516;13.460;2022-07-17T10:41:59;17.10;99.90
32502;DHT22;18952;52.516;13.460;2022-07-17T10:44:32;16.70;99.90
32502;DHT22;18952;52.516;13.460;2022-07-17T10:47:02;16.60;99.90
32502;DHT22;18952;52.516;13.460;2022-07-17T10:49:30;16.50;99.90
32502;DHT22;18952;52.516;13.460;2022-07-17T10:52:10;16.60;99.90
32502;DHT22;18952;52.516;13.460;2022-07-17T10:54:41;16.70;99.90
32502;DHT22;18952;52.516;13.460;2022-07-17T10:57:15;16.80;99.90
32502;DHT22;18952;52.516;13.460;2022-07-17T10:59:47;16.70;99.90
32502;DHT22;18952;52.516;13.460;2022-07-17T11:02:17;16.60;99.90
32502;DHT22;18952;52.516;13.460;2022-07-17T11:04:54;16.70;99.90
32502;DHT22;18952;52.516;13.460;2022-07-17T11:07:23;16.90;99.90
32502;DHT22;18952;52.516;13.460;2022-07-17T11:09:51;17.00;99.90
32502;DHT22;18952;52.516;13.460;2022-07-17T11:12:31;17.20;99.90
32502;DHT22;18952;52.516;13.460;2022-07-17T11:15:04;17.30;99.70
32502;DHT22;18952;52.516;13.460;2022-07-17T11:17:35;17.30;99.70
32502;DHT22;18952;52.516;13.460;2022-07-17T11:20:04;17.50;99.70
32502;DHT22;18952;52.516;13.460;2022-07-17T11:22:45;17.50;98.50
32502;DHT22;18952;52.516;13.460;2022-07-17T11:25:16;17.30;98.50
32502;DHT22;18952;52.516;13.460;2022-07-17T11:27:48;17.30;98.70
32502;DHT22;18952;52.516;13.460;2022-07-17T11:30:24;17.50;98.00
32502;DHT22;18952;52.516;13.460;2022-07-17T11:32:54;17.50;97.70
32502;DHT22;18952;52.516;13.460;2022-07-17T11:35:32;17.50;97.60
32502;DHT22;18952;52.516;13.460;2022-07-17T11:38:10;17.50;97.50
32502;DHT22;18952;52.516;13.460;2022-07-17T11:40:48;17.70;97.00
32502;DHT22;18952;52.516;13.460;2022-07-17T11:43:16;17.70;96.80
32502;DHT22;18952;52.516;13.460;2022-07-17T11:45:46;17.80;96.80
32502;DHT22;18952;52.516;13.460;2022-07-17T11:48:19;17.90;96.90
32502;DHT22;18952;52.516;13.460;2022-07-17T11:50:55;18.00;96.50
32502;DHT22;18952;52.516;13.460;2022-07-17T11:53:38;18.20;96.00
32502;DHT22;18952;52.516;13.460;2022-07-17T11:56:07;18.30;95.80
32502;DHT22;18952;52.516;13.460;2022-07-17T11:58:51;18.30;95.80
32502;DHT22;18952;52.516;13.460;2022-07-17T12:01:36;18.50;95.80
32502;DHT22;18952;52.516;13.460;2022-07-17T12:04:04;18.70;94.90
32502;DHT22;18952;52.516;13.460;2022-07-17T12:06:34;18.80;94.80
32502;DHT22;18952;52.516;13.460;2022-07-17T12:09:02;19.10;94.50
32502;DHT22;18952;52.516;13.460;2022-07-17T12:11:31;19.40;92.60
32502;DHT22;18952;52.516;13.460;2022-07-17T12:14:04;19.40;92.30
32502;DHT22;18952;52.516;13.460;2022-07-17T12:16:37;19.70;91.40
32502;DHT22;18952;52.516;13.460;2022-07-17T12:19:15;19.90;90.90
32502;DHT22;18952;52.516;13.460;2022-07-17T12:22:00;20.10;90.10
32502;DHT22;18952;52.516;13.460;2022-07-17T12:24:39;20.30;88.20
32502;DHT22;18952;52.516;13.460;2022-07-17T12:27:14;20.60;87.80
32502;DHT22;18952;52.516;13.460;2022-07-17T12:29:46;20.80;83.50
32502;DHT22;18952;52.516;13.460;2022-07-17T12:32:17;20.80;84.60
32502;DHT22;18952;52.516;13.460;2022-07-17T12:34:50;21.30;82.80
32502;DHT22;18952;52.516;13.460;2022-07-17T12:37:27;21.40;79.20
32502;DHT22;18952;52.516;13.460;2022-07-17T12:40:00;21.20;79.80
32502;DHT22;18952;52.516;13.460;2022-07-17T12:42:33;21.50;80.80
32502;DHT22;18952;52.516;13.460;2022-07-17T12:45:05;22.00;79.20
32502;DHT22;18952;52.516;13.460;2022-07-17T12:47:33;22.50;74.10
32502;DHT22;18952;52.516;13.460;2022-07-17T12:50:00;22.80;74.70
32502;DHT22;18952;52.516;13.460;2022-07-17T12:52:35;23.00;72.10
32502;DHT22;18952;52.516;13.460;2022-07-17T12:55:05;23.00;71.70
32502;DHT22;18952;52.516;13.460;2022-07-17T12:57:36;23.50;71.00
32502;DHT22;18952;52.516;13.460;2022-07-17T13:00:14;23.90;70.10
32502;DHT22;18952;52.516;13.460;2022-07-17T13:02:46;24.20;66.10
32502;DHT22;18952;52.516;13.460;2022-07-17T13:05:28;24.40;64.90
32502;DHT22;18952;52.516;13.460;2022-07-17T13:08:08;24.60;63.30
32502;DHT22;18952;52.516;13.460;2022-07-17T13:10:46;24.90;63.80
32502;DHT22;18952;52.516;13.460;2022-07-17T13:13:17;24.60;62.70
32502;DHT22;18952;52.516;13.460;2022-07-17T13:15:44;24.20;63.70
32502;DHT22;18952;52.516;13.460;2022-07-17T13:18:13;24.40;63.70
32502;DHT22;18952;52.516;13.460;2022-07-17T13:20:43;24.80;63.40
32502;DHT22;18952;52.516;13.460;2022-07-17T13:23:15;25.10;60.70
32502;DHT22;18952;52.516;13.460;2022-07-17T13:25:45;24.80;60.20
32502;DHT22;18952;52.516;13.460;2022-07-17T13:28:17;24.50;60.50
32502;DHT22;18952;52.516;13.460;2022-07-17T13:30:47;24.80;59.40
32502;DHT22;18952;52.516;13.460;2022-07-17T13:33:14;25.10;60.40
32502;DHT22;18952;52.516;13.460;2022-07-17T13:35:44;25.50;59.00
32502;DHT22;18952;52.516;13.460;2022-07-17T13:38:12;25.20;58.80
32502;DHT22;18952;52.516;13.460;2022-07-17T13:40:43;25.20;57.80
32502;DHT22;18952;52.516;13.460;2022-07-17T13:43:16;25.00;57.90
32502;DHT22;18952;52.516;13.460;2022-07-17T13:45:52;24.80;58.30
32502;DHT22;18952;52.516;13.460;2022-07-17T13:48:23;24.90;58.60
32502;DHT22;18952;52.516;13.460;2022-07-17T13:50:53;25.20;58.00
32502;DHT22;18952;52.516;13.460;2022-07-17T13:53:25;25.50;57.80
32502;DHT22;18952;52.516;13.460;2022-07-17T13:55:53;25.60;56.40
32502;DHT22;18952;52.516;13.460;2022-07-17T13:58:23;25.50;56.90
32502;DHT22;18952;52.516;13.460;2022-07-17T14:00:51;25.50;57.20
32502;DHT22;18952;52.516;13.460;2022-07-17T14:03:21;25.40;57.00
32502;DHT22;18952;52.516;13.460;2022-07-17T14:05:54;25.60;55.60
32502;DHT22;18952;52.516;13.460;2022-07-17T14:08:29;25.60;55.60
32502;DHT22;18952;52.516;13.460;2022-07-17T14:11:10;25.60;55.30
32502;DHT22;18952;52.516;13.460;2022-07-17T14:13:40;25.50;55.90
32502;DHT22;18952;52.516;13.460;2022-07-17T14:16:17;26.10;55.10
32502;DHT22;18952;52.516;13.460;2022-07-17T14:18:49;26.20;54.60
32502;DHT22;18952;52.516;13.460;2022-07-17T14:21:17;26.00;54.30
32502;DHT22;18952;52.516;13.460;2022-07-17T14:23:48;26.10;55.20
32502;DHT22;18952;52.516;13.460;2022-07-17T14:26:17;26.20;54.40
32502;DHT22;18952;52.516;13.460;2022-07-17T14:28:46;26.20;54.10
32502;DHT22;18952;52.516;13.460;2022-07-17T14:31:13;26.80;53.30
32502;DHT22;18952;52.516;13.460;2022-07-17T14:33:44;26.50;51.60
32502;DHT22;18952;52.516;13.460;2022-07-17T14:36:14;26.10;53.00
32502;DHT22;18952;52.516;13.460;2022-07-17T14:38:42;26.30;52.40
32502;DHT22;18952;52.516;13.460;2022-07-17T14:41:11;26.20;53.00
32502;DHT22;18952;52.516;13.460;2022-07-17T14:43:42;26.30;52.70
32502;DHT22;18952;52.516;13.460;2022-07-17T14:46:13;26.10;54.10
32502;DHT22;18952;52.516;13.460;2022-07-17T14:48:50;26.80;52.40
32502;DHT22;18952;52.516;13.460;2022-07-17T14:51:21;26.90;51.10
32502;DHT22;18952;52.516;13.460;2022-07-17T14:53:52;26.50;50.80
32502;DHT22;18952;52.516;13.460;2022-07-17T14:56:19;26.10;51.30
32502;DHT22;18952;52.516;13.460;2022-07-17T14:58:49;26.10;52.20
32502;DHT22;18952;52.516;13.460;2022-07-17T15:01:17;26.30;51.80
32502;DHT22;18952;52.516;13.460;2022-07-17T15:03:46;26.50;52.30
32502;DHT22;18952;52.516;13.460;2022-07-17T15:06:23;26.40;52.50
32502;DHT22;18952;52.516;13.460;2022-07-17T15:08:50;26.60;52.30
32502;DHT22;18952;52.516;13.460;2022-07-17T15:11:22;26.50;51.20
32502;DHT22;18952;52.516;13.460;2022-07-17T15:13:52;26.60;51.50
32502;DHT22;18952;52.516;13.460;2022-07-17T15:16:21;26.80;51.40
32502;DHT22;18952;52.516;13.460;2022-07-17T15:18:59;26.60;50.60
32502;DHT22;18952;52.516;13.460;2022-07-17T15:21:29;26.10;51.30
32502;DHT22;18952;52.516;13.460;2022-07-17T15:24:22;26.10;50.90
32502;DHT22;18952;52.516;13.460;2022-07-17T15:26:52;26.00;50.30
32502;DHT22;18952;52.516;13.460;2022-07-17T15:29:26;26.00;51.00
32502;DHT22;18952;52.516;13.460;2022-07-17T15:31:56;26.20;50.50
32502;DHT22;18952;52.516;13.460;2022-07-17T15:34:24;26.20;51.30
32502;DHT22;18952;52.516;13.460;2022-07-17T15:36:54;26.30;50.10
32502;DHT22;18952;52.516;13.460;2022-07-17T15:39:23;26.30;49.20
32502;DHT22;18952;52.516;13.460;2022-07-17T15:41:53;26.00;50.10
32502;DHT22;18952;52.516;13.460;2022-07-17T15:44:22;26.20;49.80
32502;DHT22;18952;52.516;13.460;2022-07-17T15:46:54;26.50;49.80
32502;DHT22;18952;52.516;13.460;2022-07-17T15:49:21;26.60;49.40